createdAt,value
2022-10-12T00:06:51.757Z,25.6
2022-10-12T00:12:04.713Z,25.5
2022-10-12T00:17:16.288Z,25.9
2022-10-12T00:22:28.568Z,24.7
2022-10-12T00:27:44.637Z,26.8
2022-10-12T00:32:57.166Z,27.4
2022-10-12T00:38:13.713Z,28.1
2022-10-12T00:43:26.308Z,29.2
2022-10-12T00:48:41.780Z,29.5
2022-10-12T00:53:54.428Z,27
2022-10-12T00:59:06.392Z,26.4
2022-10-12T01:04:17.271Z,24.8
2022-10-12T01:09:29.267Z,27.4
2022-10-12T01:14:42.422Z,26.8
2022-10-12T01:19:57.524Z,30.2
2022-10-12T01:25:06.278Z,29.6
2022-10-12T01:30:18.228Z,28.5
2022-10-12T01:46:13.111Z,25.6
2022-10-12T01:51:27.888Z,24.7
2022-10-12T01:56:40.155Z,25.9
2022-10-12T02:01:55.622Z,24.4
2022-10-12T02:07:08.147Z,27.5
2022-10-12T02:12:24.057Z,25.1
2022-10-12T02:22:58.438Z,23.4
2022-10-12T02:28:09.130Z,22
2022-10-12T02:38:45.225Z,23
2022-10-12T02:43:55.148Z,26.1
2022-10-12T02:49:07.482Z,22.6
2022-10-12T02:54:19.401Z,22.5
2022-10-12T02:59:31.900Z,23.2
2022-10-12T03:10:05.529Z,24.4
2022-10-12T03:26:01.877Z,24.3
2022-10-12T03:41:58.590Z,25.4
2022-10-12T03:47:10.290Z,26.7
2022-10-12T03:52:22.640Z,25.1
2022-10-12T04:02:55.925Z,26.3
2022-10-12T04:13:29.463Z,28.2
2022-10-12T04:18:42.019Z,28.7
2022-10-12T04:23:53.746Z,29.6
2022-10-12T04:29:06.257Z,29.6
2022-10-12T04:34:19.187Z,29.7
2022-10-12T04:44:59.822Z,31.3
2022-10-12T04:55:33.640Z,30.1
2022-10-12T05:06:06.938Z,30.6
2022-10-12T05:11:18.039Z,33.4
2022-10-12T05:16:30.322Z,39.8
2022-10-12T05:21:42.317Z,31.4
2022-10-12T05:32:16.511Z,36
2022-10-12T05:37:28.729Z,36.2
2022-10-12T05:48:02.107Z,36.1
2022-10-12T05:58:40.483Z,38
2022-10-12T06:03:53.512Z,36.3
2022-10-12T06:09:07.787Z,32.8
2022-10-12T06:14:21.294Z,34.6
2022-10-12T06:19:38.234Z,36.1
2022-10-12T06:24:54.342Z,39.7
2022-10-12T06:30:09.778Z,34.3
2022-10-12T06:40:44.174Z,36.3
2022-10-12T06:46:00.233Z,36.7
2022-10-12T06:51:11.031Z,33.4
2022-10-12T06:56:26.751Z,33.7
2022-10-12T07:01:43.675Z,35.2
2022-10-12T07:06:56.445Z,34.3
2022-10-12T07:17:29.282Z,28.7
2022-10-12T07:22:41.591Z,23.1
2022-10-12T07:27:54.202Z,19.7
2022-10-12T07:33:06.220Z,18.4
2022-10-12T07:38:16.741Z,15
2022-10-12T07:43:28.858Z,13.5
2022-10-12T07:48:50.162Z,12.6
2022-10-12T07:53:52.968Z,11.9
2022-10-12T07:59:05.092Z,11.9
2022-10-12T08:04:17.300Z,13.3
2022-10-12T08:09:30.120Z,10.8
2022-10-12T08:14:40.786Z,10.2
2022-10-12T08:19:53.005Z,11.3
2022-10-12T08:30:39.458Z,11
2022-10-12T08:35:43.669Z,10.4
2022-10-12T08:46:15.969Z,10.7
2022-10-12T08:51:33.094Z,17
2022-10-12T08:56:49.452Z,11.4
2022-10-12T09:02:06.428Z,11.2
2022-10-12T09:07:18.350Z,11.4
2022-10-12T09:17:50.689Z,11.1
2022-10-12T09:23:07.799Z,10.5
2022-10-12T09:28:20.918Z,10.9
2022-10-12T09:33:36.512Z,15.1
2022-10-12T09:38:51.997Z,12.1
2022-10-12T09:49:25.286Z,12.6
2022-10-12T09:54:37.658Z,12.1
2022-10-12T09:59:54.112Z,11.9
2022-10-12T10:05:06.741Z,11.7
2022-10-12T10:10:31.075Z,11.9
2022-10-12T10:15:39.703Z,13.4
2022-10-12T10:26:12.917Z,12.2
2022-10-12T10:36:46.306Z,12.4
2022-10-12T10:52:45.634Z,11.8
2022-10-12T10:57:57.317Z,11
2022-10-12T11:19:14.185Z,10.5
2022-10-12T11:24:32.371Z,9.6
2022-10-12T11:35:09.460Z,9.1
2022-10-12T11:40:48.049Z,9.2
2022-10-12T11:51:10.617Z,8
2022-10-12T11:56:21.340Z,7.4
2022-10-12T12:01:40.644Z,7.6
2022-10-12T12:12:25.978Z,6.8
2022-10-12T12:23:04.694Z,10
2022-10-12T12:28:24.016Z,5.5
2022-10-12T12:33:52.099Z,7.1
2022-10-12T12:38:59.676Z,6.4
2022-10-12T12:59:49.847Z,5.6
2022-10-12T13:04:56.331Z,5.1
2022-10-12T13:15:32.446Z,5.3
2022-10-12T13:26:05.871Z,5.6
2022-10-12T13:31:14.697Z,5.7
2022-10-12T13:36:25.027Z,5.7
2022-10-12T13:41:34.376Z,5.7
2022-10-12T13:46:47.788Z,5.8
2022-10-12T13:52:04.308Z,5.9
2022-10-12T13:57:22.335Z,6.1
2022-10-12T14:02:32.716Z,5.7
2022-10-12T14:07:46.039Z,5.6
2022-10-12T14:13:09.958Z,5.6
2022-10-12T14:18:25.060Z,5.4
2022-10-12T14:23:37.421Z,6.4
2022-10-12T14:28:49.992Z,6.1
2022-10-12T14:39:38.594Z,7.9
2022-10-12T14:44:50.043Z,7.4
2022-10-12T14:50:11.175Z,7.8
2022-10-12T15:00:47.093Z,7.4
2022-10-12T15:11:18.631Z,7.6
2022-10-12T15:16:31.435Z,8.9
2022-10-12T15:32:24.465Z,9.8
2022-10-12T15:42:55.858Z,10.6
2022-10-12T15:53:28.638Z,11
2022-10-12T16:04:03.491Z,12.7
2022-10-12T16:09:15.322Z,12.7
2022-10-12T16:14:26.191Z,11.1
2022-10-12T16:19:41.215Z,11.5
2022-10-12T16:24:53.965Z,11.4
2022-10-12T16:30:08.205Z,12.8
2022-10-12T16:35:23.868Z,11.3
2022-10-12T16:45:57.336Z,12.5
2022-10-12T16:51:12.913Z,13.3
2022-10-12T16:56:30.233Z,14.3
2022-10-12T17:01:42.295Z,13.1
2022-10-12T17:06:56.347Z,14.7
2022-10-12T17:22:52.206Z,13
2022-10-12T17:28:05.681Z,20.3
2022-10-12T17:33:21.383Z,54
2022-10-12T17:38:37.082Z,22
2022-10-12T17:43:48.254Z,17.2
2022-10-12T17:49:05.302Z,15.7
2022-10-12T17:54:21.405Z,18.3
2022-10-12T18:04:55.275Z,17.8
2022-10-12T18:15:31.625Z,19
2022-10-12T18:20:50.081Z,16.5
2022-10-12T18:25:59.785Z,17.4
2022-10-12T18:31:16.553Z,17.3
2022-10-12T18:47:08.061Z,16.8
2022-10-12T18:57:45.267Z,17.3
2022-10-12T19:03:03.064Z,18.8
2022-10-12T19:08:13.580Z,20
2022-10-12T19:24:09.730Z,19.3
2022-10-12T19:29:21.337Z,20.7
2022-10-12T19:34:32.841Z,17.3
2022-10-12T19:39:45.493Z,16.7
2022-10-12T19:44:58.731Z,16.9
2022-10-12T19:50:09.882Z,19.4
2022-10-12T19:55:22.657Z,16.2
2022-10-12T20:00:35.096Z,14.6
2022-10-12T20:05:51.165Z,16.8
2022-10-12T20:10:57.799Z,18.1
2022-10-12T20:16:09.529Z,17.8
2022-10-12T20:21:23.706Z,17.6
2022-10-12T20:26:32.515Z,18
2022-10-12T20:31:43.965Z,15.2
2022-10-12T20:36:55.025Z,15.4
2022-10-12T20:42:11.553Z,12
2022-10-12T20:47:21.638Z,12.3
2022-10-12T20:58:00.755Z,10.3
2022-10-12T21:03:13.888Z,12.2
2022-10-12T21:08:27.453Z,11
2022-10-12T21:13:38.754Z,13.1
2022-10-12T21:18:55.587Z,13.9
2022-10-12T21:34:51.330Z,11.8
2022-10-12T21:40:03.695Z,12.5
2022-10-12T21:45:19.816Z,15.4
2022-10-12T21:50:30.190Z,13.6
2022-10-12T21:55:42.626Z,13.9
2022-10-12T22:06:14.580Z,13.2
2022-10-12T22:27:30.487Z,13.4
2022-10-12T22:38:08.444Z,13.3
2022-10-12T22:48:42.129Z,12.5
2022-10-12T22:53:55.283Z,13.4
2022-10-12T22:59:13.027Z,12.7
2022-10-12T23:04:25.474Z,13.8
2022-10-12T23:09:37.183Z,14.5
2022-10-12T23:14:49.867Z,15.8
2022-10-12T23:25:21.701Z,12.7
2022-10-12T23:30:34.776Z,12.8
2022-10-12T23:35:46.724Z,13.8
2022-10-12T23:46:18.641Z,15.5
2022-10-12T23:51:30.279Z,15.6
2022-10-12T23:56:43.126Z,14.8
